createdAt,value
2023-09-02T00:04:05.848Z,66.10
2023-09-02T00:09:08.724Z,66.20
2023-09-02T00:14:11.599Z,66.20
2023-09-02T00:19:14.345Z,66.00
2023-09-02T00:24:17.431Z,66.10
2023-09-02T00:29:20.247Z,65.90
2023-09-02T00:34:22.952Z,66.10
2023-09-02T00:39:25.654Z,66.00
2023-09-02T00:44:28.674Z,65.90
2023-09-02T00:49:34.223Z,65.80
2023-09-02T00:54:37.343Z,65.80
2023-09-02T00:59:40.357Z,65.90
2023-09-02T01:04:43.595Z,65.80
2023-09-02T01:09:53.718Z,66.00
2023-09-02T01:14:56.642Z,65.90
2023-09-02T01:20:00.678Z,66.00
2023-09-02T01:25:25.708Z,66.00
2023-09-02T01:30:32.653Z,66.10
2023-09-02T01:35:35.985Z,66.10
2023-09-02T01:40:40.950Z,65.90
2023-09-02T01:45:44.162Z,66.00
2023-09-02T01:50:48.300Z,65.80
2023-09-02T01:55:54.715Z,65.90
2023-09-02T02:00:59.412Z,65.90
2023-09-02T02:06:06.369Z,66.10
2023-09-02T02:11:10.269Z,66.10
2023-09-02T02:16:13.249Z,66.00
2023-09-02T02:21:17.511Z,66.30
2023-09-02T02:26:20.302Z,66.70
2023-09-02T02:31:23.293Z,66.10
2023-09-02T02:36:26.144Z,66.10
2023-09-02T02:41:34.458Z,66.10
2023-09-02T02:46:37.128Z,65.90
2023-09-02T02:51:39.764Z,66.20
2023-09-02T02:56:42.766Z,65.60
2023-09-02T03:01:45.685Z,65.40
2023-09-02T03:06:48.293Z,65.80
2023-09-02T03:11:54.266Z,65.90
2023-09-02T03:16:56.914Z,66.00
2023-09-02T03:21:59.581Z,66.00
2023-09-02T03:27:04.313Z,66.40
2023-09-02T03:32:07.108Z,66.50
2023-09-02T03:37:09.832Z,66.10
2023-09-02T03:42:12.618Z,66.10
2023-09-02T03:47:15.580Z,66.30
2023-09-02T03:52:18.841Z,66.30
2023-09-02T03:57:21.537Z,66.20
2023-09-02T04:02:26.886Z,66.50
2023-09-02T04:07:29.907Z,66.30
2023-09-02T04:12:33.531Z,66.00
2023-09-02T04:17:36.263Z,66.20
2023-09-02T04:22:39.037Z,66.10
2023-09-02T04:27:42.767Z,66.20
2023-09-02T04:32:49.061Z,66.30
2023-09-02T04:37:52.572Z,66.10
2023-09-02T04:42:57.125Z,66.00
2023-09-02T04:48:01.639Z,66.40
2023-09-02T04:53:08.639Z,66.50
2023-09-02T04:58:14.843Z,66.30
2023-09-02T05:03:19.655Z,66.20
2023-09-02T05:08:32.541Z,66.50
2023-09-02T05:13:35.544Z,66.20
2023-09-02T05:18:39.061Z,66.40
2023-09-02T05:23:41.863Z,66.20
2023-09-02T05:28:45.881Z,66.10
2023-09-02T05:33:49.201Z,65.90
2023-09-02T05:38:51.901Z,66.10
2023-09-02T05:43:55.439Z,66.00
2023-09-02T05:48:58.355Z,65.90
2023-09-02T05:54:01.571Z,65.60
2023-09-02T05:59:05.169Z,65.70
2023-09-02T06:04:08.164Z,65.50
2023-09-02T06:09:11.319Z,65.60
2023-09-02T06:14:14.377Z,65.50
2023-09-02T06:19:17.328Z,65.80
2023-09-02T06:24:20.137Z,65.60
2023-09-02T06:29:22.923Z,66.20
2023-09-02T06:34:25.837Z,66.40
2023-09-02T06:39:28.625Z,66.20
2023-09-02T06:44:31.362Z,66.50
2023-09-02T06:49:34.377Z,66.60
2023-09-02T06:54:37.052Z,66.30
2023-09-02T06:59:40.275Z,66.50
2023-09-02T07:04:43.191Z,66.50
2023-09-02T07:09:46.105Z,66.50
2023-09-02T07:14:48.783Z,66.40
2023-09-02T07:19:51.591Z,66.50
2023-09-02T07:24:54.175Z,66.50
2023-09-02T07:29:59.751Z,66.10
2023-09-02T07:35:02.953Z,66.70
2023-09-02T07:40:07.320Z,67.30
2023-09-02T07:45:10.831Z,67.00
2023-09-02T07:50:13.852Z,68.20
2023-09-02T07:55:19.389Z,68.30
2023-09-02T08:00:22.102Z,68.10
2023-09-02T08:05:27.922Z,68.70
2023-09-02T08:10:40.419Z,68.00
2023-09-02T08:15:44.489Z,67.30
2023-09-02T08:20:47.334Z,67.10
2023-09-02T08:25:50.461Z,67.40
2023-09-02T08:30:53.314Z,67.80
2023-09-02T08:35:55.965Z,67.20
2023-09-02T08:41:02.967Z,67.60
2023-09-02T08:46:10.657Z,67.70
2023-09-02T08:51:13.898Z,68.20
2023-09-02T08:56:17.003Z,68.10
2023-09-02T09:01:21.179Z,67.70
2023-09-02T09:06:25.390Z,67.10
2023-09-02T09:11:32.829Z,66.80
2023-09-02T09:16:38.173Z,66.90
2023-09-02T09:21:41.064Z,67.10
2023-09-02T09:26:48.882Z,66.00
2023-09-02T09:32:09.605Z,65.50
2023-09-02T09:37:21.591Z,66.10
2023-09-02T09:42:36.711Z,65.70
2023-09-02T09:47:42.680Z,65.70
2023-09-02T09:53:11.664Z,65.20
2023-09-02T09:58:24.022Z,64.10
2023-09-02T10:03:31.600Z,63.70
2023-09-02T10:08:50.638Z,63.80
2023-09-02T10:14:03.203Z,64.00
2023-09-02T10:19:06.222Z,63.50
2023-09-02T10:24:13.620Z,63.50
2023-09-02T10:29:22.277Z,62.90
2023-09-02T10:34:29.149Z,62.30
2023-09-02T10:39:44.025Z,62.00
2023-09-02T10:44:48.656Z,63.00
2023-09-02T10:49:51.703Z,64.60
2023-09-02T10:55:09.226Z,64.10
2023-09-02T11:00:31.059Z,63.80
2023-09-02T11:06:07.075Z,63.90
2023-09-02T11:11:09.546Z,64.20
2023-09-02T11:16:16.217Z,64.70
2023-09-02T11:21:43.955Z,63.20
2023-09-02T11:26:50.700Z,63.00
2023-09-02T11:32:01.055Z,63.00
2023-09-02T11:37:04.599Z,62.20
2023-09-02T11:42:11.935Z,61.70
2023-09-02T11:47:15.109Z,64.20
2023-09-02T11:52:22.940Z,62.50
2023-09-02T11:57:25.523Z,62.30
2023-09-02T12:02:28.148Z,62.20
2023-09-02T12:07:33.830Z,61.80
2023-09-02T12:12:44.412Z,61.80
2023-09-02T12:17:48.262Z,61.30
2023-09-02T12:22:51.415Z,61.40
2023-09-02T12:28:10.091Z,60.30
2023-09-02T12:33:12.897Z,59.50
2023-09-02T12:38:17.135Z,59.40
2023-09-02T12:43:25.249Z,59.80
2023-09-02T12:48:30.518Z,60.70
2023-09-02T12:53:33.212Z,60.40
2023-09-02T12:58:35.916Z,60.50
2023-09-02T13:03:40.149Z,59.00
2023-09-02T13:08:44.180Z,59.30
2023-09-02T13:13:47.099Z,59.50
2023-09-02T13:18:52.760Z,59.50
2023-09-02T13:23:55.371Z,59.00
2023-09-02T13:29:09.955Z,59.00
2023-09-02T13:34:39.319Z,59.00
2023-09-02T13:40:21.653Z,59.30
2023-09-02T13:45:34.065Z,59.70
2023-09-02T13:50:46.279Z,59.90
2023-09-02T13:55:57.583Z,60.20
2023-09-02T14:01:09.729Z,60.50
2023-09-02T14:06:28.713Z,61.40
2023-09-02T14:11:37.533Z,60.50
2023-09-02T14:16:51.963Z,59.90
2023-09-02T14:22:04.819Z,59.00
2023-09-02T14:27:20.447Z,61.00
2023-09-02T14:32:29.727Z,60.30
2023-09-02T14:37:44.880Z,60.50
2023-09-02T14:42:54.360Z,60.30
2023-09-02T14:48:04.250Z,60.00
2023-09-02T14:53:14.322Z,60.70
2023-09-02T14:58:21.327Z,59.30
2023-09-02T15:03:38.733Z,58.60
2023-09-02T15:08:47.118Z,59.00
2023-09-02T15:13:56.950Z,59.00
2023-09-02T15:19:07.843Z,60.20
2023-09-02T15:24:14.980Z,59.20
2023-09-02T15:29:28.274Z,59.20
2023-09-02T15:34:39.928Z,58.70
2023-09-02T15:39:48.463Z,58.60
2023-09-02T15:44:58.266Z,58.70
2023-09-02T15:50:06.527Z,59.50
2023-09-02T15:55:26.985Z,59.60
2023-09-02T16:00:38.065Z,60.00
2023-09-02T16:05:52.152Z,59.60
2023-09-02T16:11:02.508Z,59.80
2023-09-02T16:16:08.360Z,60.00
2023-09-02T16:21:11.681Z,60.00
2023-09-02T16:26:14.932Z,60.20
2023-09-02T16:31:18.364Z,60.30
2023-09-02T16:36:21.538Z,60.30
2023-09-02T16:41:25.369Z,60.40
2023-09-02T16:46:28.811Z,60.90
2023-09-02T16:51:32.375Z,60.60
2023-09-02T16:56:37.867Z,60.90
2023-09-02T17:01:43.480Z,60.70
2023-09-02T17:06:47.963Z,60.70
2023-09-02T17:11:50.682Z,60.80
2023-09-02T17:16:53.604Z,60.80
2023-09-02T17:21:57.307Z,60.80
2023-09-02T17:27:12.503Z,60.90
2023-09-02T17:32:22.987Z,60.60
2023-09-02T17:37:26.904Z,61.20
2023-09-02T17:42:30.429Z,61.50
2023-09-02T17:47:33.331Z,61.60
2023-09-02T17:52:37.169Z,62.50
2023-09-02T17:57:49.181Z,62.90
2023-09-02T18:02:51.929Z,62.70
2023-09-02T18:07:55.505Z,62.80
2023-09-02T18:12:58.821Z,63.30
2023-09-02T18:18:02.742Z,63.60
2023-09-02T18:23:05.552Z,64.20
2023-09-02T18:28:09.075Z,64.40
2023-09-02T18:33:12.493Z,63.90
2023-09-02T18:38:18.271Z,64.60
2023-09-02T18:43:21.783Z,63.80
2023-09-02T18:48:25.650Z,63.90
2023-09-02T18:53:28.732Z,64.10
2023-09-02T18:58:33.789Z,63.60
2023-09-02T19:03:38.296Z,63.90
2023-09-02T19:08:44.602Z,64.50
2023-09-02T19:13:48.337Z,64.80
2023-09-02T19:18:53.101Z,64.40
2023-09-02T19:23:57.732Z,64.40
2023-09-02T19:29:02.388Z,64.60
2023-09-02T19:34:06.432Z,64.50
2023-09-02T19:39:18.582Z,65.00
2023-09-02T19:44:22.979Z,65.50
2023-09-02T19:49:31.866Z,66.10
2023-09-02T19:54:37.794Z,66.30
2023-09-02T19:59:41.087Z,66.30
2023-09-02T20:04:46.157Z,66.40
2023-09-02T20:09:50.001Z,65.90
2023-09-02T20:14:54.627Z,67.00
2023-09-02T20:19:59.020Z,66.70
2023-09-02T20:25:05.869Z,66.90
2023-09-02T20:30:11.554Z,67.40
2023-09-02T20:35:21.236Z,68.00
2023-09-02T20:40:25.231Z,67.50
2023-09-02T20:45:28.264Z,67.50
2023-09-02T20:50:33.108Z,67.50
2023-09-02T20:55:36.711Z,67.90
2023-09-02T21:00:41.012Z,67.20
2023-09-02T21:05:43.903Z,67.10
2023-09-02T21:10:48.213Z,66.90
2023-09-02T21:15:51.121Z,66.70
2023-09-02T21:20:53.795Z,66.80
2023-09-02T21:26:10.067Z,67.00
2023-09-02T21:31:15.504Z,67.10
2023-09-02T21:36:19.232Z,68.00
2023-09-02T21:41:21.931Z,68.50
2023-09-02T21:46:25.306Z,68.40
2023-09-02T21:51:28.834Z,67.90
2023-09-02T21:56:31.554Z,67.90
2023-09-02T22:01:34.684Z,67.90
2023-09-02T22:06:37.763Z,67.80
2023-09-02T22:11:40.377Z,67.60
2023-09-02T22:16:43.180Z,67.60
2023-09-02T22:21:47.693Z,67.50
2023-09-02T22:26:50.458Z,67.60
2023-09-02T22:31:53.363Z,66.90
2023-09-02T22:36:56.753Z,67.30
2023-09-02T22:42:00.609Z,67.30
2023-09-02T22:47:04.619Z,67.20
2023-09-02T22:52:07.621Z,67.20
2023-09-02T22:57:10.310Z,67.30
2023-09-02T23:02:14.878Z,67.40
2023-09-02T23:07:17.689Z,66.90
2023-09-02T23:12:21.397Z,67.60
2023-09-02T23:17:24.153Z,67.00
2023-09-02T23:22:26.813Z,67.20
2023-09-02T23:27:30.530Z,67.30
2023-09-02T23:32:33.767Z,67.30
2023-09-02T23:37:36.641Z,67.70
2023-09-02T23:42:39.400Z,67.40
2023-09-02T23:47:42.984Z,67.40
2023-09-02T23:52:45.689Z,67.20
2023-09-02T23:57:49.717Z,67.50
